sensor_id;sensor_type;location;lat;lon;timestamp;temperature;humidity
51655;DHT22;37732;53.106;7.030;2023-08-21T10:17:43;27.10;99.40
51655;DHT22;37732;53.106;7.030;2023-08-21T10:20:09;27.10;98.50
51655;DHT22;37732;53.106;7.030;2023-08-21T10:25:03;27.30;98.50
51655;DHT22;37732;53.106;7.030;2023-08-21T10:27:30;26.90;96.80
51655;DHT22;37732;53.106;7.030;2023-08-21T10:29:57;27.00;98.30
51655;DHT22;37732;53.106;7.030;2023-08-21T10:32:24;27.10;98.50
51655;DHT22;37732;53.106;7.030;2023-08-21T10:34:53;27.30;98.40
51655;DHT22;37732;53.106;7.030;2023-08-21T10:37:19;27.50;98.00
51655;DHT22;37732;53.106;7.030;2023-08-21T10:39:55;27.60;97.50
51655;DHT22;37732;53.106;7.030;2023-08-21T10:42:39;27.40;95.20
51655;DHT22;37732;53.106;7.030;2023-08-21T10:45:12;27.20;94.90
51655;DHT22;37732;53.106;7.030;2023-08-21T10:47:43;27.00;96.20
51655;DHT22;37732;53.106;7.030;2023-08-21T10:50:11;27.00;94.40
51655;DHT22;37732;53.106;7.030;2023-08-21T10:52:44;27.10;96.70
51655;DHT22;37732;53.106;7.030;2023-08-21T10:55:16;27.50;96.30
51655;DHT22;37732;53.106;7.030;2023-08-21T10:57:51;27.60;95.50
51655;DHT22;37732;53.106;7.030;2023-08-21T11:00:19;27.50;95.00
51655;DHT22;37732;53.106;7.030;2023-08-21T11:02:48;27.50;95.20
51655;DHT22;37732;53.106;7.030;2023-08-21T11:05:18;27.70;96.00
51655;DHT22;37732;53.106;7.030;2023-08-21T11:07:47;27.90;95.90
51655;DHT22;37732;53.106;7.030;2023-08-21T11:10:21;27.90;95.40
51655;DHT22;37732;53.106;7.030;2023-08-21T11:12:52;28.10;93.00
51655;DHT22;37732;53.106;7.030;2023-08-21T11:15:18;28.20;93.60
51655;DHT22;37732;53.106;7.030;2023-08-21T11:18:01;28.20;93.60
51655;DHT22;37732;53.106;7.030;2023-08-21T11:20:32;28.10;93.20
51655;DHT22;37732;53.106;7.030;2023-08-21T11:23:06;28.20;92.90
51655;DHT22;37732;53.106;7.030;2023-08-21T11:25:39;27.90;91.40
51655;DHT22;37732;53.106;7.030;2023-08-21T11:28:08;28.00;91.80
51655;DHT22;37732;53.106;7.030;2023-08-21T11:30:36;28.10;92.80
51655;DHT22;37732;53.106;7.030;2023-08-21T11:33:11;28.10;92.30
51655;DHT22;37732;53.106;7.030;2023-08-21T11:35:38;28.10;92.50
51655;DHT22;37732;53.106;7.030;2023-08-21T11:38:05;28.30;92.00
51655;DHT22;37732;53.106;7.030;2023-08-21T11:40:34;28.50;93.70
51655;DHT22;37732;53.106;7.030;2023-08-21T11:43:01;28.60;91.80
51655;DHT22;37732;53.106;7.030;2023-08-21T11:45:32;28.80;92.90
51655;DHT22;37732;53.106;7.030;2023-08-21T11:47:58;28.80;92.10
51655;DHT22;37732;53.106;7.030;2023-08-21T11:50:26;28.80;92.80
51655;DHT22;37732;53.106;7.030;2023-08-21T11:52:55;28.80;92.40
51655;DHT22;37732;53.106;7.030;2023-08-21T11:55:23;28.70;92.00
51655;DHT22;37732;53.106;7.030;2023-08-21T11:57:51;28.90;92.60
51655;DHT22;37732;53.106;7.030;2023-08-21T12:00:19;29.00;93.00
51655;DHT22;37732;53.106;7.030;2023-08-21T12:02:58;28.90;91.60
51655;DHT22;37732;53.106;7.030;2023-08-21T12:05:28;28.90;91.60
51655;DHT22;37732;53.106;7.030;2023-08-21T12:07:55;29.00;90.80
51655;DHT22;37732;53.106;7.030;2023-08-21T12:10:30;28.90;90.40
51655;DHT22;37732;53.106;7.030;2023-08-21T12:12:57;28.60;90.40
51655;DHT22;37732;53.106;7.030;2023-08-21T12:15:24;28.40;90.60
51655;DHT22;37732;53.106;7.030;2023-08-21T12:17:51;28.50;90.50
51655;DHT22;37732;53.106;7.030;2023-08-21T12:20:17;28.60;89.00
51655;DHT22;37732;53.106;7.030;2023-08-21T12:22:45;28.90;90.30
51655;DHT22;37732;53.106;7.030;2023-08-21T12:25:12;29.20;90.30
51655;DHT22;37732;53.106;7.030;2023-08-21T12:27:38;29.40;90.40
51655;DHT22;37732;53.106;7.030;2023-08-21T12:30:05;29.30;88.60
51655;DHT22;37732;53.106;7.030;2023-08-21T12:32:32;29.50;87.90
51655;DHT22;37732;53.106;7.030;2023-08-21T12:34:57;29.60;89.50
51655;DHT22;37732;53.106;7.030;2023-08-21T12:37:26;29.70;89.50
51655;DHT22;37732;53.106;7.030;2023-08-21T12:39:53;29.60;88.80
51655;DHT22;37732;53.106;7.030;2023-08-21T12:42:20;29.00;83.40
51655;DHT22;37732;53.106;7.030;2023-08-21T12:44:48;29.10;88.50
51655;DHT22;37732;53.106;7.030;2023-08-21T12:47:14;29.40;89.20
51655;DHT22;37732;53.106;7.030;2023-08-21T12:49:40;29.70;88.20
51655;DHT22;37732;53.106;7.030;2023-08-21T12:52:06;29.70;84.30
51655;DHT22;37732;53.106;7.030;2023-08-21T12:54:32;29.50;86.80
51655;DHT22;37732;53.106;7.030;2023-08-21T12:56:58;29.50;87.90
51655;DHT22;37732;53.106;7.030;2023-08-21T12:59:24;29.50;89.80
51655;DHT22;37732;53.106;7.030;2023-08-21T13:01:50;29.40;90.00
51655;DHT22;37732;53.106;7.030;2023-08-21T13:04:19;29.20;89.60
51655;DHT22;37732;53.106;7.030;2023-08-21T13:06:45;29.30;88.80
51655;DHT22;37732;53.106;7.030;2023-08-21T13:09:13;29.20;90.20
51655;DHT22;37732;53.106;7.030;2023-08-21T13:11:40;29.10;87.80
51655;DHT22;37732;53.106;7.030;2023-08-21T13:14:08;29.30;88.20
51655;DHT22;37732;53.106;7.030;2023-08-21T13:16:35;29.60;84.90
51655;DHT22;37732;53.106;7.030;2023-08-21T13:19:02;29.70;84.40
51655;DHT22;37732;53.106;7.030;2023-08-21T13:21:29;29.70;84.70
51655;DHT22;37732;53.106;7.030;2023-08-21T13:23:55;29.70;83.10
51655;DHT22;37732;53.106;7.030;2023-08-21T13:26:21;29.50;81.50
51655;DHT22;37732;53.106;7.030;2023-08-21T13:28:47;29.30;80.30
51655;DHT22;37732;53.106;7.030;2023-08-21T13:31:13;29.30;81.70
51655;DHT22;37732;53.106;7.030;2023-08-21T13:33:46;29.40;82.70
51655;DHT22;37732;53.106;7.030;2023-08-21T13:36:18;29.40;81.00
51655;DHT22;37732;53.106;7.030;2023-08-21T13:38:46;29.60;82.50
51655;DHT22;37732;53.106;7.030;2023-08-21T13:41:13;29.50;80.20
51655;DHT22;37732;53.106;7.030;2023-08-21T13:43:40;29.40;76.80
51655;DHT22;37732;53.106;7.030;2023-08-21T13:46:08;29.30;78.00
51655;DHT22;37732;53.106;7.030;2023-08-21T13:48:37;29.50;78.70
51655;DHT22;37732;53.106;7.030;2023-08-21T13:51:05;29.90;79.00
51655;DHT22;37732;53.106;7.030;2023-08-21T13:53:33;30.20;78.10
51655;DHT22;37732;53.106;7.030;2023-08-21T13:56:00;30.10;75.70
51655;DHT22;37732;53.106;7.030;2023-08-21T13:58:26;29.90;73.90
51655;DHT22;37732;53.106;7.030;2023-08-21T14:00:52;29.70;75.20
51655;DHT22;37732;53.106;7.030;2023-08-21T14:03:18;29.50;77.20
51655;DHT22;37732;53.106;7.030;2023-08-21T14:05:47;29.40;76.00
51655;DHT22;37732;53.106;7.030;2023-08-21T14:08:16;29.40;76.30
51655;DHT22;37732;53.106;7.030;2023-08-21T14:10:44;29.40;75.20
51655;DHT22;37732;53.106;7.030;2023-08-21T14:13:12;29.40;76.10
51655;DHT22;37732;53.106;7.030;2023-08-21T14:15:40;29.30;74.60
51655;DHT22;37732;53.106;7.030;2023-08-21T14:18:08;29.10;77.50
51655;DHT22;37732;53.106;7.030;2023-08-21T14:20:35;28.90;77.30
51655;DHT22;37732;53.106;7.030;2023-08-21T14:23:01;28.80;77.20
51655;DHT22;37732;53.106;7.030;2023-08-21T14:25:29;28.80;79.30
51655;DHT22;37732;53.106;7.030;2023-08-21T14:27:57;28.80;79.00
51655;DHT22;37732;53.106;7.030;2023-08-21T14:30:24;28.80;76.10
51655;DHT22;37732;53.106;7.030;2023-08-21T14:32:51;28.90;72.80
51655;DHT22;37732;53.106;7.030;2023-08-21T14:35:18;29.10;73.50
51655;DHT22;37732;53.106;7.030;2023-08-21T14:37:46;29.30;75.00
51655;DHT22;37732;53.106;7.030;2023-08-21T14:40:15;29.40;75.10
51655;DHT22;37732;53.106;7.030;2023-08-21T14:42:44;29.50;75.20
51655;DHT22;37732;53.106;7.030;2023-08-21T14:45:11;29.40;74.30
51655;DHT22;37732;53.106;7.030;2023-08-21T14:47:38;29.50;74.10
51655;DHT22;37732;53.106;7.030;2023-08-21T14:50:05;29.50;72.80
51655;DHT22;37732;53.106;7.030;2023-08-21T14:52:32;29.60;74.80
51655;DHT22;37732;53.106;7.030;2023-08-21T14:54:58;29.60;75.60
51655;DHT22;37732;53.106;7.030;2023-08-21T14:57:24;29.70;75.90
51655;DHT22;37732;53.106;7.030;2023-08-21T14:59:52;29.60;76.80
51655;DHT22;37732;53.106;7.030;2023-08-21T15:02:18;29.50;77.10
51655;DHT22;37732;53.106;7.030;2023-08-21T15:04:44;29.50;78.70
51655;DHT22;37732;53.106;7.030;2023-08-21T15:07:14;29.60;78.00
51655;DHT22;37732;53.106;7.030;2023-08-21T15:09:40;29.70;77.50
51655;DHT22;37732;53.106;7.030;2023-08-21T15:12:06;29.70;74.00
51655;DHT22;37732;53.106;7.030;2023-08-21T15:14:33;29.70;75.40
51655;DHT22;37732;53.106;7.030;2023-08-21T15:17:02;29.70;75.40
51655;DHT22;37732;53.106;7.030;2023-08-21T15:19:31;29.80;77.20
51655;DHT22;37732;53.106;7.030;2023-08-21T15:21:59;29.90;75.80
51655;DHT22;37732;53.106;7.030;2023-08-21T15:24:30;29.70;75.20
51655;DHT22;37732;53.106;7.030;2023-08-21T15:26:56;29.50;75.90
51655;DHT22;37732;53.106;7.030;2023-08-21T15:29:23;29.40;77.30
51655;DHT22;37732;53.106;7.030;2023-08-21T15:31:51;29.20;75.40
51655;DHT22;37732;53.106;7.030;2023-08-21T15:34:19;29.20;77.60
51655;DHT22;37732;53.106;7.030;2023-08-21T15:36:46;29.20;78.70
51655;DHT22;37732;53.106;7.030;2023-08-21T15:39:15;29.20;78.00
51655;DHT22;37732;53.106;7.030;2023-08-21T15:41:43;29.30;79.00
51655;DHT22;37732;53.106;7.030;2023-08-21T15:44:11;29.40;79.30
51655;DHT22;37732;53.106;7.030;2023-08-21T15:46:39;29.50;79.80
51655;DHT22;37732;53.106;7.030;2023-08-21T15:49:09;29.50;78.30
51655;DHT22;37732;53.106;7.030;2023-08-21T15:51:43;29.50;78.30
51655;DHT22;37732;53.106;7.030;2023-08-21T15:54:18;29.50;78.70
51655;DHT22;37732;53.106;7.030;2023-08-21T15:56:46;29.40;78.40
51655;DHT22;37732;53.106;7.030;2023-08-21T15:59:13;29.30;77.60
51655;DHT22;37732;53.106;7.030;2023-08-21T16:01:41;29.10;77.20
51655;DHT22;37732;53.106;7.030;2023-08-21T16:04:07;28.90;77.90
51655;DHT22;37732;53.106;7.030;2023-08-21T16:06:33;28.80;78.30
51655;DHT22;37732;53.106;7.030;2023-08-21T16:09:03;28.60;79.10
51655;DHT22;37732;53.106;7.030;2023-08-21T16:11:30;28.40;79.90
51655;DHT22;37732;53.106;7.030;2023-08-21T16:13:57;28.30;80.70
51655;DHT22;37732;53.106;7.030;2023-08-21T16:16:26;28.10;81.90
51655;DHT22;37732;53.106;7.030;2023-08-21T16:18:53;27.90;82.30
51655;DHT22;37732;53.106;7.030;2023-08-21T16:21:19;27.80;83.30
51655;DHT22;37732;53.106;7.030;2023-08-21T16:23:50;27.70;82.60
51655;DHT22;37732;53.106;7.030;2023-08-21T16:26:19;27.50;79.70
51655;DHT22;37732;53.106;7.030;2023-08-21T16:28:46;27.40;80.20
51655;DHT22;37732;53.106;7.030;2023-08-21T16:31:16;27.30;81.90
51655;DHT22;37732;53.106;7.030;2023-08-21T16:33:43;27.40;83.30
51655;DHT22;37732;53.106;7.030;2023-08-21T16:36:09;27.20;84.30
51655;DHT22;37732;53.106;7.030;2023-08-21T16:38:36;27.20;85.40
51655;DHT22;37732;53.106;7.030;2023-08-21T16:41:04;27.20;86.50
51655;DHT22;37732;53.106;7.030;2023-08-21T16:43:34;27.10;88.30
51655;DHT22;37732;53.106;7.030;2023-08-21T16:46:01;27.00;90.20
51655;DHT22;37732;53.106;7.030;2023-08-21T16:48:28;26.90;91.20
51655;DHT22;37732;53.106;7.030;2023-08-21T16:50:54;26.70;91.90
51655;DHT22;37732;53.106;7.030;2023-08-21T16:53:20;26.60;92.80
51655;DHT22;37732;53.106;7.030;2023-08-21T16:55:46;26.50;93.80
51655;DHT22;37732;53.106;7.030;2023-08-21T16:58:13;26.40;94.40
51655;DHT22;37732;53.106;7.030;2023-08-21T17:00:41;26.30;95.20
51655;DHT22;37732;53.106;7.030;2023-08-21T17:03:07;26.30;95.40
51655;DHT22;37732;53.106;7.030;2023-08-21T17:05:36;26.30;95.70
51655;DHT22;37732;53.106;7.030;2023-08-21T17:08:05;26.20;96.20
51655;DHT22;37732;53.106;7.030;2023-08-21T17:10:34;26.10;96.90
51655;DHT22;37732;53.106;7.030;2023-08-21T17:13:01;26.00;97.40
51655;DHT22;37732;53.106;7.030;2023-08-21T17:15:27;25.90;97.90
51655;DHT22;37732;53.106;7.030;2023-08-21T17:17:53;25.80;98.30
51655;DHT22;37732;53.106;7.030;2023-08-21T17:20:24;25.80;98.40
51655;DHT22;37732;53.106;7.030;2023-08-21T17:22:52;25.80;98.80
51655;DHT22;37732;53.106;7.030;2023-08-21T17:25:21;25.70;98.90
51655;DHT22;37732;53.106;7.030;2023-08-21T17:27:48;25.70;99.20
51655;DHT22;37732;53.106;7.030;2023-08-21T17:30:15;25.60;99.40
51655;DHT22;37732;53.106;7.030;2023-08-21T17:32:44;25.40;99.60
51655;DHT22;37732;53.106;7.030;2023-08-21T17:35:12;25.40;99.90
51655;DHT22;37732;53.106;7.030;2023-08-21T17:37:39;25.30;99.90
51655;DHT22;37732;53.106;7.030;2023-08-21T17:40:07;25.30;99.90
51655;DHT22;37732;53.106;7.030;2023-08-21T17:42:33;25.20;99.90
51655;DHT22;37732;53.106;7.030;2023-08-21T17:45:02;25.10;99.90
51655;DHT22;37732;53.106;7.030;2023-08-21T17:47:29;25.00;99.90
51655;DHT22;37732;53.106;7.030;2023-08-21T17:49:55;24.90;99.90
51655;DHT22;37732;53.106;7.030;2023-08-21T17:52:22;24.80;99.90
51655;DHT22;37732;53.106;7.030;2023-08-21T17:54:50;24.70;99.90
51655;DHT22;37732;53.106;7.030;2023-08-21T17:57:17;24.70;99.90
51655;DHT22;37732;53.106;7.030;2023-08-21T17:59:43;24.60;99.90
51655;DHT22;37732;53.106;7.030;2023-08-21T18:02:10;24.50;99.90
51655;DHT22;37732;53.106;7.030;2023-08-21T18:04:35;24.50;99.90
51655;DHT22;37732;53.106;7.030;2023-08-21T18:07:03;24.40;99.90
51655;DHT22;37732;53.106;7.030;2023-08-21T18:09:31;24.30;99.90
51655;DHT22;37732;53.106;7.030;2023-08-21T18:11:58;24.20;99.90
51655;DHT22;37732;53.106;7.030;2023-08-21T18:14:24;24.10;99.90
51655;DHT22;37732;53.106;7.030;2023-08-21T18:16:54;24.00;99.90
51655;DHT22;37732;53.106;7.030;2023-08-21T18:19:24;23.90;99.90
51655;DHT22;37732;53.106;7.030;2023-08-21T18:21:52;23.80;99.90
51655;DHT22;37732;53.106;7.030;2023-08-21T18:24:21;23.70;99.90
51655;DHT22;37732;53.106;7.030;2023-08-21T18:26:48;23.60;99.90
51655;DHT22;37732;53.106;7.030;2023-08-21T18:29:16;23.60;99.90
51655;DHT22;37732;53.106;7.030;2023-08-21T18:31:44;23.50;99.90
51655;DHT22;37732;53.106;7.030;2023-08-21T18:34:10;23.40;99.90
51655;DHT22;37732;53.106;7.030;2023-08-21T18:36:37;23.30;99.90
51655;DHT22;37732;53.106;7.030;2023-08-21T18:39:06;23.20;99.90
51655;DHT22;37732;53.106;7.030;2023-08-21T18:41:32;23.20;99.90
51655;DHT22;37732;53.106;7.030;2023-08-21T18:44:01;23.00;99.90
51655;DHT22;37732;53.106;7.030;2023-08-21T18:46:27;22.90;99.90
51655;DHT22;37732;53.106;7.030;2023-08-21T18:48:54;22.80;99.90
51655;DHT22;37732;53.106;7.030;2023-08-21T18:51:22;22.70;99.90
51655;DHT22;37732;53.106;7.030;2023-08-21T18:53:49;22.50;99.90
51655;DHT22;37732;53.106;7.030;2023-08-21T18:56:15;22.40;99.90
51655;DHT22;37732;53.106;7.030;2023-08-21T18:58:42;22.30;99.90
51655;DHT22;37732;53.106;7.030;2023-08-21T19:01:08;22.10;99.90
51655;DHT22;37732;53.106;7.030;2023-08-21T19:03:35;22.00;99.90
51655;DHT22;37732;53.106;7.030;2023-08-21T19:06:02;21.80;99.90
51655;DHT22;37732;53.106;7.030;2023-08-21T19:08:31;21.70;99.90
51655;DHT22;37732;53.106;7.030;2023-08-21T19:10:58;21.70;99.90
51655;DHT22;37732;53.106;7.030;2023-08-21T19:13:29;21.70;99.90
51655;DHT22;37732;53.106;7.030;2023-08-21T19:15:58;21.50;99.90
51655;DHT22;37732;53.106;7.030;2023-08-21T19:18:27;21.40;99.90
51655;DHT22;37732;53.106;7.030;2023-08-21T19:21:06;21.40;99.90
51655;DHT22;37732;53.106;7.030;2023-08-21T19:23:34;21.30;99.90
51655;DHT22;37732;53.106;7.030;2023-08-21T19:26:02;21.20;99.90
51655;DHT22;37732;53.106;7.030;2023-08-21T19:28:29;21.10;99.90
51655;DHT22;37732;53.106;7.030;2023-08-21T19:30:58;21.10;99.90
51655;DHT22;37732;53.106;7.030;2023-08-21T19:33:26;21.00;99.90
51655;DHT22;37732;53.106;7.030;2023-08-21T19:35:52;20.90;99.90
51655;DHT22;37732;53.106;7.030;2023-08-21T19:38:21;20.80;99.90
51655;DHT22;37732;53.106;7.030;2023-08-21T19:40:49;20.70;99.90
51655;DHT22;37732;53.106;7.030;2023-08-21T19:43:17;20.50;99.90
51655;DHT22;37732;53.106;7.030;2023-08-21T19:45:53;20.40;99.90
51655;DHT22;37732;53.106;7.030;2023-08-21T19:48:21;20.40;99.90
51655;DHT22;37732;53.106;7.030;2023-08-21T19:50:57;20.30;99.90
51655;DHT22;37732;53.106;7.030;2023-08-21T19:53:25;20.20;99.90
51655;DHT22;37732;53.106;7.030;2023-08-21T19:55:54;20.20;99.90
51655;DHT22;37732;53.106;7.030;2023-08-21T19:58:20;20.10;99.90
51655;DHT22;37732;53.106;7.030;2023-08-21T20:00:47;20.10;99.90
51655;DHT22;37732;53.106;7.030;2023-08-21T20:03:15;20.00;99.90
51655;DHT22;37732;53.106;7.030;2023-08-21T20:05:44;19.90;99.90
51655;DHT22;37732;53.106;7.030;2023-08-21T20:08:14;19.90;99.90
51655;DHT22;37732;53.106;7.030;2023-08-21T20:10:43;19.90;99.90
51655;DHT22;37732;53.106;7.030;2023-08-21T20:13:13;19.80;99.90
51655;DHT22;37732;53.106;7.030;2023-08-21T20:15:40;19.70;99.90
51655;DHT22;37732;53.106;7.030;2023-08-21T20:18:06;19.70;99.90
51655;DHT22;37732;53.106;7.030;2023-08-21T20:20:33;19.60;99.90
51655;DHT22;37732;53.106;7.030;2023-08-21T20:23:02;19.50;99.90
51655;DHT22;37732;53.106;7.030;2023-08-21T20:25:30;19.40;99.90
51655;DHT22;37732;53.106;7.030;2023-08-21T20:27:58;19.40;99.90
51655;DHT22;37732;53.106;7.030;2023-08-21T20:30:26;19.40;99.90
51655;DHT22;37732;53.106;7.030;2023-08-21T20:32:54;19.30;99.90
51655;DHT22;37732;53.106;7.030;2023-08-21T20:35:19;19.30;99.90
51655;DHT22;37732;53.106;7.030;2023-08-21T20:37:45;19.20;99.90
51655;DHT22;37732;53.106;7.030;2023-08-21T20:40:13;19.10;99.90
51655;DHT22;37732;53.106;7.030;2023-08-21T20:42:42;19.10;99.90
51655;DHT22;37732;53.106;7.030;2023-08-21T20:45:11;19.00;99.90
51655;DHT22;37732;53.106;7.030;2023-08-21T20:47:39;19.10;99.90
51655;DHT22;37732;53.106;7.030;2023-08-21T20:50:05;19.00;99.90
51655;DHT22;37732;53.106;7.030;2023-08-21T20:52:34;19.00;99.90
51655;DHT22;37732;53.106;7.030;2023-08-21T20:55:01;19.00;99.90
51655;DHT22;37732;53.106;7.030;2023-08-21T20:57:28;18.90;99.90
51655;DHT22;37732;53.106;7.030;2023-08-21T20:59:56;18.90;99.90
51655;DHT22;37732;53.106;7.030;2023-08-21T21:02:24;18.80;99.90
51655;DHT22;37732;53.106;7.030;2023-08-21T21:04:52;18.80;99.90
51655;DHT22;37732;53.106;7.030;2023-08-21T21:07:23;18.80;99.90
51655;DHT22;37732;53.106;7.030;2023-08-21T21:09:49;18.80;99.90
51655;DHT22;37732;53.106;7.030;2023-08-21T21:12:15;18.70;99.90
51655;DHT22;37732;53.106;7.030;2023-08-21T21:14:42;18.60;99.90
51655;DHT22;37732;53.106;7.030;2023-08-21T21:17:08;18.60;99.90
51655;DHT22;37732;53.106;7.030;2023-08-21T21:19:35;18.60;99.90
51655;DHT22;37732;53.106;7.030;2023-08-21T21:22:02;18.50;99.90
51655;DHT22;37732;53.106;7.030;2023-08-21T21:24:29;18.50;99.90
51655;DHT22;37732;53.106;7.030;2023-08-21T21:26:57;18.50;99.90
51655;DHT22;37732;53.106;7.030;2023-08-21T21:29:26;18.40;99.90
51655;DHT22;37732;53.106;7.030;2023-08-21T21:31:52;18.40;99.90
51655;DHT22;37732;53.106;7.030;2023-08-21T21:34:18;18.40;99.90
51655;DHT22;37732;53.106;7.030;2023-08-21T21:36:46;18.40;99.90
51655;DHT22;37732;53.106;7.030;2023-08-21T21:39:14;18.40;99.90
51655;DHT22;37732;53.106;7.030;2023-08-21T21:41:41;18.30;99.90
51655;DHT22;37732;53.106;7.030;2023-08-21T21:44:12;18.30;99.90
51655;DHT22;37732;53.106;7.030;2023-08-21T21:46:40;18.60;99.90
51655;DHT22;37732;53.106;7.030;2023-08-21T21:49:10;18.30;99.90
51655;DHT22;37732;53.106;7.030;2023-08-21T21:51:39;18.20;99.90
51655;DHT22;37732;53.106;7.030;2023-08-21T21:54:07;18.10;99.90
51655;DHT22;37732;53.106;7.030;2023-08-21T21:56:37;18.00;99.90
51655;DHT22;37732;53.106;7.030;2023-08-21T21:59:04;18.00;99.90
51655;DHT22;37732;53.106;7.030;2023-08-21T22:01:30;18.00;99.90
51655;DHT22;37732;53.106;7.030;2023-08-21T22:03:59;18.00;99.90
51655;DHT22;37732;53.106;7.030;2023-08-21T22:06:25;17.90;99.90
51655;DHT22;37732;53.106;7.030;2023-08-21T22:08:52;17.80;99.90
51655;DHT22;37732;53.106;7.030;2023-08-21T22:11:19;17.80;99.90
51655;DHT22;37732;53.106;7.030;2023-08-21T22:13:45;17.80;99.90
51655;DHT22;37732;53.106;7.030;2023-08-21T22:16:18;17.80;99.90
51655;DHT22;37732;53.106;7.030;2023-08-21T22:18:46;17.80;99.90
51655;DHT22;37732;53.106;7.030;2023-08-21T22:21:16;17.80;99.90
51655;DHT22;37732;53.106;7.030;2023-08-21T22:23:43;17.70;99.90
51655;DHT22;37732;53.106;7.030;2023-08-21T22:26:11;17.70;99.90
51655;DHT22;37732;53.106;7.030;2023-08-21T22:28:40;17.70;99.90
51655;DHT22;37732;53.106;7.030;2023-08-21T22:31:09;17.70;99.90
51655;DHT22;37732;53.106;7.030;2023-08-21T22:33:36;17.60;99.90
51655;DHT22;37732;53.106;7.030;2023-08-21T22:36:05;17.60;99.90
51655;DHT22;37732;53.106;7.030;2023-08-21T22:38:31;17.60;99.90
